sensor_id;sensor_type;location;lat;lon;timestamp;pressure;altitude;pressure_sealevel;temperature;humidity
57048;BME280;42934;54.294;18.598;2023-04-21T00:00:09;101615.19;;;8.44;63.04
57048;BME280;42934;54.294;18.598;2023-04-21T00:02:58;101621.28;;;8.48;63.15
57048;BME280;42934;54.294;18.598;2023-04-21T00:05:30;101611.72;;;8.37;62.98
57048;BME280;42934;54.294;18.598;2023-04-21T00:08:00;101616.94;;;8.44;63.02
57048;BME280;42934;54.294;18.598;2023-04-21T00:10:29;101618.72;;;8.37;63.16
57048;BME280;42934;54.294;18.598;2023-04-21T00:12:58;101613.47;;;8.37;63.54
57048;BME280;42934;54.294;18.598;2023-04-21T00:15:27;101613.50;;;8.32;63.45
57048;BME280;42934;54.294;18.598;2023-04-21T00:17:56;101618.00;;;8.16;65.01
57048;BME280;42934;54.294;18.598;2023-04-21T00:20:26;101619.63;;;8.39;63.40
57048;BME280;42934;54.294;18.598;2023-04-21T00:22:57;101611.72;;;8.45;63.40
57048;BME280;42934;54.294;18.598;2023-04-21T00:25:27;101612.56;;;8.47;63.22
57048;BME280;42934;54.294;18.598;2023-04-21T00:27:56;101615.19;;;8.47;62.96
57048;BME280;42934;54.294;18.598;2023-04-21T00:30:25;101608.22;;;8.45;63.18
57048;BME280;42934;54.294;18.598;2023-04-21T00:32:54;101618.69;;;8.45;63.11
57048;BME280;42934;54.294;18.598;2023-04-21T00:35:24;101618.72;;;8.40;63.20
57048;BME280;42934;54.294;18.598;2023-04-21T00:37:55;101623.28;;;8.06;65.09
57048;BME280;42934;54.294;18.598;2023-04-21T00:40:25;101625.19;;;7.85;66.15
57048;BME280;42934;54.294;18.598;2023-04-21T00:42:54;101620.75;;;7.98;64.91
57048;BME280;42934;54.294;18.598;2023-04-21T00:45:23;101624.16;;;8.09;64.93
57048;BME280;42934;54.294;18.598;2023-04-21T00:47:52;101626.09;;;7.75;66.10
57048;BME280;42934;54.294;18.598;2023-04-21T00:50:21;101623.34;;;7.96;65.76
57048;BME280;42934;54.294;18.598;2023-04-21T00:52:51;101619.78;;;8.10;64.60
57048;BME280;42934;54.294;18.598;2023-04-21T00:55:22;101627.75;;;7.90;65.54
57048;BME280;42934;54.294;18.598;2023-04-21T00:57:51;101622.50;;;7.97;65.26
57048;BME280;42934;54.294;18.598;2023-04-21T01:00:21;101618.06;;;8.06;64.71
57048;BME280;42934;54.294;18.598;2023-04-21T01:02:51;101619.06;;;7.89;65.27
57048;BME280;42934;54.294;18.598;2023-04-21T01:05:20;101609.59;;;7.64;66.83
57048;BME280;42934;54.294;18.598;2023-04-21T01:07:49;101617.44;;;7.68;66.85
57048;BME280;42934;54.294;18.598;2023-04-21T01:10:19;101612.97;;;7.86;65.93
57048;BME280;42934;54.294;18.598;2023-04-21T01:12:49;101620.81;;;7.89;65.83
57048;BME280;42934;54.294;18.598;2023-04-21T01:15:18;101612.06;;;7.94;65.44
57048;BME280;42934;54.294;18.598;2023-04-21T01:17:48;101612.03;;;7.96;65.25
57048;BME280;42934;54.294;18.598;2023-04-21T01:20:17;101616.44;;;7.89;66.06
57048;BME280;42934;54.294;18.598;2023-04-21T01:22:48;101604.25;;;7.87;65.79
57048;BME280;42934;54.294;18.598;2023-04-21T01:25:18;101606.94;;;7.73;66.28
57048;BME280;42934;54.294;18.598;2023-04-21T01:27:49;101606.81;;;7.93;65.98
57048;BME280;42934;54.294;18.598;2023-04-21T01:30:21;101606.81;;;7.97;65.33
57048;BME280;42934;54.294;18.598;2023-04-21T01:32:51;101601.53;;;8.02;65.34
57048;BME280;42934;54.294;18.598;2023-04-21T01:35:20;101595.41;;;8.05;64.90
57048;BME280;42934;54.294;18.598;2023-04-21T01:37:50;101593.69;;;8.04;65.15
57048;BME280;42934;54.294;18.598;2023-04-21T01:40:20;101599.91;;;7.84;66.14
57048;BME280;42934;54.294;18.598;2023-04-21T01:42:49;101600.81;;;7.79;66.39
57048;BME280;42934;54.294;18.598;2023-04-21T01:45:19;101593.06;;;7.60;67.00
57048;BME280;42934;54.294;18.598;2023-04-21T01:47:48;101599.09;;;7.78;66.57
57048;BME280;42934;54.294;18.598;2023-04-21T01:50:17;101595.53;;;7.86;65.94
57048;BME280;42934;54.294;18.598;2023-04-21T01:52:46;101592.09;;;7.83;66.42
57048;BME280;42934;54.294;18.598;2023-04-21T01:55:17;101586.81;;;7.87;66.02
57048;BME280;42934;54.294;18.598;2023-04-21T01:57:46;101581.50;;;7.96;65.15
57048;BME280;42934;54.294;18.598;2023-04-21T02:00:16;101595.50;;;7.91;65.32
57048;BME280;42934;54.294;18.598;2023-04-21T02:02:47;101578.94;;;7.95;65.41
57048;BME280;42934;54.294;18.598;2023-04-21T02:05:17;101581.50;;;7.96;65.23
57048;BME280;42934;54.294;18.598;2023-04-21T02:07:46;101576.34;;;7.92;65.40
57048;BME280;42934;54.294;18.598;2023-04-21T02:10:17;101577.19;;;7.95;65.20
57048;BME280;42934;54.294;18.598;2023-04-21T02:12:46;101586.81;;;7.89;65.74
57048;BME280;42934;54.294;18.598;2023-04-21T02:15:15;101589.50;;;7.77;66.47
57048;BME280;42934;54.294;18.598;2023-04-21T02:17:45;101573.03;;;7.65;66.29
57048;BME280;42934;54.294;18.598;2023-04-21T02:20:14;101587.00;;;7.55;67.55
57048;BME280;42934;54.294;18.598;2023-04-21T02:22:43;101586.16;;;7.48;67.55
57048;BME280;42934;54.294;18.598;2023-04-21T02:25:13;101591.28;;;7.70;66.41
57048;BME280;42934;54.294;18.598;2023-04-21T02:27:43;101585.19;;;7.71;66.59
57048;BME280;42934;54.294;18.598;2023-04-21T02:30:12;101586.94;;;7.67;66.89
57048;BME280;42934;54.294;18.598;2023-04-21T02:32:41;101586.94;;;7.64;66.51
57048;BME280;42934;54.294;18.598;2023-04-21T02:35:12;101592.97;;;7.76;66.19
57048;BME280;42934;54.294;18.598;2023-04-21T02:37:41;101594.75;;;7.77;66.16
57048;BME280;42934;54.294;18.598;2023-04-21T02:40:11;101589.50;;;7.80;65.54
57048;BME280;42934;54.294;18.598;2023-04-21T02:42:40;101594.72;;;7.80;66.12
57048;BME280;42934;54.294;18.598;2023-04-21T02:45:11;101586.91;;;7.77;66.28
57048;BME280;42934;54.294;18.598;2023-04-21T02:47:40;101588.63;;;7.76;66.31
57048;BME280;42934;54.294;18.598;2023-04-21T02:50:12;101590.38;;;7.76;66.64
57048;BME280;42934;54.294;18.598;2023-04-21T02:52:41;101594.75;;;7.72;66.44
57048;BME280;42934;54.294;18.598;2023-04-21T02:55:10;101587.81;;;7.68;66.82
57048;BME280;42934;54.294;18.598;2023-04-21T02:57:41;101590.44;;;7.68;66.79
57048;BME280;42934;54.294;18.598;2023-04-21T03:00:12;101593.06;;;7.65;66.79
57048;BME280;42934;54.294;18.598;2023-04-21T03:02:41;101597.47;;;7.57;67.18
57048;BME280;42934;54.294;18.598;2023-04-21T03:05:11;101585.22;;;7.63;67.01
57048;BME280;42934;54.294;18.598;2023-04-21T03:07:40;101586.09;;;7.61;67.35
57048;BME280;42934;54.294;18.598;2023-04-21T03:10:11;101589.59;;;7.58;67.21
57048;BME280;42934;54.294;18.598;2023-04-21T03:12:40;101589.63;;;7.57;67.02
57048;BME280;42934;54.294;18.598;2023-04-21T03:15:11;101591.38;;;7.47;67.99
57048;BME280;42934;54.294;18.598;2023-04-21T03:17:41;101584.41;;;7.49;67.38
57048;BME280;42934;54.294;18.598;2023-04-21T03:20:10;101579.19;;;7.54;67.73
57048;BME280;42934;54.294;18.598;2023-04-21T03:22:39;101575.72;;;7.53;67.59
57048;BME280;42934;54.294;18.598;2023-04-21T03:25:09;101577.44;;;7.51;66.89
57048;BME280;42934;54.294;18.598;2023-04-21T03:27:38;101580.91;;;7.51;67.09
57048;BME280;42934;54.294;18.598;2023-04-21T03:30:09;101575.72;;;7.47;67.72
57048;BME280;42934;54.294;18.598;2023-04-21T03:32:39;101585.31;;;7.45;67.12
57048;BME280;42934;54.294;18.598;2023-04-21T03:35:09;101577.47;;;7.43;67.50
57048;BME280;42934;54.294;18.598;2023-04-21T03:37:38;101578.38;;;7.42;67.39
57048;BME280;42934;54.294;18.598;2023-04-21T03:40:09;101581.00;;;7.39;67.67
57048;BME280;42934;54.294;18.598;2023-04-21T03:42:38;101575.75;;;7.38;67.80
57048;BME280;42934;54.294;18.598;2023-04-21T03:45:09;101574.03;;;7.34;68.40
57048;BME280;42934;54.294;18.598;2023-04-21T03:47:39;101554.03;;;7.23;67.58
57048;BME280;42934;54.294;18.598;2023-04-21T03:50:09;101580.16;;;7.33;68.03
57048;BME280;42934;54.294;18.598;2023-04-21T03:52:38;101570.53;;;7.42;67.12
57048;BME280;42934;54.294;18.598;2023-04-21T03:55:07;101576.63;;;7.44;67.21
57048;BME280;42934;54.294;18.598;2023-04-21T03:57:38;101575.78;;;7.33;67.63
57048;BME280;42934;54.294;18.598;2023-04-21T04:00:10;101571.41;;;7.40;67.98
57048;BME280;42934;54.294;18.598;2023-04-21T04:02:40;101570.50;;;7.44;67.69
57048;BME280;42934;54.294;18.598;2023-04-21T04:05:10;101570.53;;;7.38;68.41
57048;BME280;42934;54.294;18.598;2023-04-21T04:07:40;101573.97;;;7.46;67.01
57048;BME280;42934;54.294;18.598;2023-04-21T04:10:09;101578.31;;;7.48;67.06
57048;BME280;42934;54.294;18.598;2023-04-21T04:12:39;101581.81;;;7.50;67.45
57048;BME280;42934;54.294;18.598;2023-04-21T04:15:09;101585.34;;;7.39;67.68
57048;BME280;42934;54.294;18.598;2023-04-21T04:17:39;101577.47;;;7.46;67.60
57048;BME280;42934;54.294;18.598;2023-04-21T04:20:09;101580.97;;;7.41;67.46
57048;BME280;42934;54.294;18.598;2023-04-21T04:22:38;101587.91;;;7.48;67.22
57048;BME280;42934;54.294;18.598;2023-04-21T04:25:08;101583.53;;;7.47;67.71
57048;BME280;42934;54.294;18.598;2023-04-21T04:27:37;101584.44;;;7.50;67.51
57048;BME280;42934;54.294;18.598;2023-04-21T04:30:07;101591.41;;;7.50;67.27
57048;BME280;42934;54.294;18.598;2023-04-21T04:32:36;101587.84;;;7.56;67.22
57048;BME280;42934;54.294;18.598;2023-04-21T04:35:08;101586.13;;;7.59;67.35
57048;BME280;42934;54.294;18.598;2023-04-21T04:37:37;101592.22;;;7.60;66.91
57048;BME280;42934;54.294;18.598;2023-04-21T04:40:08;101596.56;;;7.61;66.74
57048;BME280;42934;54.294;18.598;2023-04-21T04:42:38;101594.78;;;7.64;66.70
57048;BME280;42934;54.294;18.598;2023-04-21T04:45:08;101581.72;;;7.66;67.26
57048;BME280;42934;54.294;18.598;2023-04-21T04:47:38;101587.88;;;7.57;67.62
57048;BME280;42934;54.294;18.598;2023-04-21T04:50:09;101596.53;;;7.65;67.75
57048;BME280;42934;54.294;18.598;2023-04-21T04:52:38;101591.28;;;7.71;67.26
57048;BME280;42934;54.294;18.598;2023-04-21T04:55:07;101589.53;;;7.67;67.45
57048;BME280;42934;54.294;18.598;2023-04-21T04:57:36;101586.00;;;7.78;66.95
57048;BME280;42934;54.294;18.598;2023-04-21T05:00:07;101582.50;;;7.80;67.00
57048;BME280;42934;54.294;18.598;2023-04-21T05:02:38;101589.44;;;7.84;66.71
57048;BME280;42934;54.294;18.598;2023-04-21T05:05:09;101590.28;;;7.89;66.84
57048;BME280;42934;54.294;18.598;2023-04-21T05:07:38;101576.31;;;7.93;66.69
57048;BME280;42934;54.294;18.598;2023-04-21T05:10:08;101575.41;;;8.01;66.87
57048;BME280;42934;54.294;18.598;2023-04-21T05:12:37;101584.09;;;8.03;67.14
57048;BME280;42934;54.294;18.598;2023-04-21T05:15:07;101586.72;;;8.01;67.33
57048;BME280;42934;54.294;18.598;2023-04-21T05:17:36;101588.44;;;8.07;67.25
57048;BME280;42934;54.294;18.598;2023-04-21T05:20:09;101585.75;;;8.14;66.68
57048;BME280;42934;54.294;18.598;2023-04-21T05:22:39;101586.69;;;8.07;67.15
57048;BME280;42934;54.294;18.598;2023-04-21T05:25:10;101587.41;;;8.23;67.16
57048;BME280;42934;54.294;18.598;2023-04-21T05:27:41;101585.66;;;8.27;66.45
57048;BME280;42934;54.294;18.598;2023-04-21T05:30:11;101588.25;;;8.30;66.70
57048;BME280;42934;54.294;18.598;2023-04-21T05:32:40;101592.59;;;8.35;66.25
57048;BME280;42934;54.294;18.598;2023-04-21T05:35:11;101589.03;;;8.38;66.64
57048;BME280;42934;54.294;18.598;2023-04-21T05:37:40;101591.66;;;8.38;66.58
57048;BME280;42934;54.294;18.598;2023-04-21T05:40:09;101582.03;;;8.46;66.76
57048;BME280;42934;54.294;18.598;2023-04-21T05:42:39;101595.94;;;8.50;66.08
57048;BME280;42934;54.294;18.598;2023-04-21T05:45:08;101592.44;;;8.54;66.15
57048;BME280;42934;54.294;18.598;2023-04-21T05:47:38;101594.16;;;8.56;66.14
57048;BME280;42934;54.294;18.598;2023-04-21T05:50:09;101593.25;;;8.60;66.16
57048;BME280;42934;54.294;18.598;2023-04-21T05:52:38;101588.91;;;8.59;66.47
57048;BME280;42934;54.294;18.598;2023-04-21T05:55:07;101581.06;;;8.59;65.89
57048;BME280;42934;54.294;18.598;2023-04-21T05:57:36;101580.06;;;8.70;66.00
57048;BME280;42934;54.294;18.598;2023-04-21T06:00:07;101585.25;;;8.76;65.95
57048;BME280;42934;54.294;18.598;2023-04-21T06:02:36;101583.50;;;8.73;66.27
57048;BME280;42934;54.294;18.598;2023-04-21T06:05:06;101581.75;;;8.75;65.50
57048;BME280;42934;54.294;18.598;2023-04-21T06:07:37;101588.69;;;8.81;65.97
57048;BME280;42934;54.294;18.598;2023-04-21T06:10:07;101581.44;;;9.04;64.92
57048;BME280;42934;54.294;18.598;2023-04-21T06:12:37;101578.75;;;9.10;65.01
57048;BME280;42934;54.294;18.598;2023-04-21T06:15:08;101573.50;;;9.12;64.79
57048;BME280;42934;54.294;18.598;2023-04-21T06:17:37;101572.63;;;9.13;64.64
57048;BME280;42934;54.294;18.598;2023-04-21T06:20:08;101571.63;;;9.20;64.79
57048;BME280;42934;54.294;18.598;2023-04-21T06:22:39;101567.22;;;9.27;64.27
57048;BME280;42934;54.294;18.598;2023-04-21T06:25:09;101564.38;;;9.42;63.99
57048;BME280;42934;54.294;18.598;2023-04-21T06:27:38;101565.25;;;9.43;63.99
57048;BME280;42934;54.294;18.598;2023-04-21T06:30:08;101568.59;;;9.52;63.88
57048;BME280;42934;54.294;18.598;2023-04-21T06:32:37;101564.22;;;9.54;63.99
57048;BME280;42934;54.294;18.598;2023-04-21T06:35:07;101558.13;;;9.54;63.90
57048;BME280;42934;54.294;18.598;2023-04-21T06:37:36;101557.16;;;9.58;64.06
57048;BME280;42934;54.294;18.598;2023-04-21T06:40:08;101554.53;;;9.58;63.58
57048;BME280;42934;54.294;18.598;2023-04-21T06:42:39;101558.66;;;9.77;63.37
57048;BME280;42934;54.294;18.598;2023-04-21T06:45:09;101563.81;;;9.84;62.96
57048;BME280;42934;54.294;18.598;2023-04-21T06:47:38;101566.38;;;9.88;62.68
57048;BME280;42934;54.294;18.598;2023-04-21T06:50:08;101572.44;;;9.92;62.54
57048;BME280;42934;54.294;18.598;2023-04-21T06:52:37;101566.19;;;10.00;62.04
57048;BME280;42934;54.294;18.598;2023-04-21T06:55:08;101567.78;;;10.09;61.63
57048;BME280;42934;54.294;18.598;2023-04-21T06:57:38;101565.13;;;10.12;61.68
57048;BME280;42934;54.294;18.598;2023-04-21T07:00:08;101565.88;;;10.19;61.30
57048;BME280;42934;54.294;18.598;2023-04-21T07:02:38;101567.41;;;10.32;61.97
57048;BME280;42934;54.294;18.598;2023-04-21T07:05:09;101568.97;;;10.45;61.72
57048;BME280;42934;54.294;18.598;2023-04-21T07:07:38;101565.53;;;10.42;60.50
57048;BME280;42934;54.294;18.598;2023-04-21T07:10:09;101573.31;;;10.46;59.35
57048;BME280;42934;54.294;18.598;2023-04-21T07:12:39;101572.31;;;10.54;60.95
57048;BME280;42934;54.294;18.598;2023-04-21T07:15:09;101566.97;;;10.58;60.46
57048;BME280;42934;54.294;18.598;2023-04-21T07:17:38;101568.56;;;10.68;60.69
57048;BME280;42934;54.294;18.598;2023-04-21T07:20:09;101571.84;;;10.80;60.55
57048;BME280;42934;54.294;18.598;2023-04-21T07:22:38;101577.84;;;10.85;59.99
57048;BME280;42934;54.294;18.598;2023-04-21T07:25:09;101576.75;;;10.97;59.73
57048;BME280;42934;54.294;18.598;2023-04-21T07:27:39;101576.88;;;10.90;57.72
57048;BME280;42934;54.294;18.598;2023-04-21T07:30:09;101568.81;;;11.01;57.58
57048;BME280;42934;54.294;18.598;2023-04-21T07:32:38;101572.94;;;11.13;57.49
57048;BME280;42934;54.294;18.598;2023-04-21T07:35:08;101565.78;;;11.20;58.56
57048;BME280;42934;54.294;18.598;2023-04-21T07:37:37;101570.78;;;11.32;57.60
57048;BME280;42934;54.294;18.598;2023-04-21T07:40:09;101569.88;;;11.34;57.77
57048;BME280;42934;54.294;18.598;2023-04-21T07:42:39;101572.16;;;11.50;57.01
57048;BME280;42934;54.294;18.598;2023-04-21T07:45:09;101572.00;;;11.57;57.03
57048;BME280;42934;54.294;18.598;2023-04-21T07:47:38;101562.06;;;11.70;57.06
57048;BME280;42934;54.294;18.598;2023-04-21T07:50:08;101565.31;;;11.81;55.15
57048;BME280;42934;54.294;18.598;2023-04-21T07:52:37;101554.78;;;11.83;54.63
57048;BME280;42934;54.294;18.598;2023-04-21T07:55:08;101559.94;;;11.88;54.74
57048;BME280;42934;54.294;18.598;2023-04-21T07:57:38;101561.41;;;12.01;55.36
57048;BME280;42934;54.294;18.598;2023-04-21T08:00:08;101562.00;;;12.12;55.52
57048;BME280;42934;54.294;18.598;2023-04-21T08:02:40;101554.75;;;12.20;54.03
57048;BME280;42934;54.294;18.598;2023-04-21T08:05:10;101562.47;;;12.28;54.13
57048;BME280;42934;54.294;18.598;2023-04-21T08:07:39;101557.03;;;12.36;54.42
57048;BME280;42934;54.294;18.598;2023-04-21T08:10:10;101554.09;;;12.46;54.26
57048;BME280;42934;54.294;18.598;2023-04-21T08:12:40;101552.97;;;12.57;52.83
57048;BME280;42934;54.294;18.598;2023-04-21T08:15:09;101546.59;;;12.65;51.72
57048;BME280;42934;54.294;18.598;2023-04-21T08:17:39;101543.66;;;12.76;52.56
57048;BME280;42934;54.294;18.598;2023-04-21T08:20:09;101549.66;;;12.81;51.72
57048;BME280;42934;54.294;18.598;2023-04-21T08:22:38;101554.66;;;12.92;51.25
57048;BME280;42934;54.294;18.598;2023-04-21T08:25:09;101547.06;;;13.11;51.87
57048;BME280;42934;54.294;18.598;2023-04-21T08:27:39;101543.69;;;13.06;52.45
57048;BME280;42934;54.294;18.598;2023-04-21T08:30:09;101550.56;;;13.11;50.27
57048;BME280;42934;54.294;18.598;2023-04-21T08:32:38;101544.16;;;13.20;49.70
57048;BME280;42934;54.294;18.598;2023-04-21T08:35:08;101545.84;;;13.23;49.86
57048;BME280;42934;54.294;18.598;2023-04-21T08:37:38;101546.63;;;13.28;49.60
57048;BME280;42934;54.294;18.598;2023-04-21T08:40:10;101544.72;;;13.33;50.78
57048;BME280;42934;54.294;18.598;2023-04-21T08:42:39;101550.47;;;13.46;50.33
57048;BME280;42934;54.294;18.598;2023-04-21T08:45:09;101551.03;;;13.57;50.09
57048;BME280;42934;54.294;18.598;2023-04-21T08:47:40;101549.03;;;13.63;49.12
57048;BME280;42934;54.294;18.598;2023-04-21T08:50:13;101542.72;;;13.69;48.36
57048;BME280;42934;54.294;18.598;2023-04-21T08:52:42;101543.19;;;13.82;48.80
57048;BME280;42934;54.294;18.598;2023-04-21T08:55:13;101537.66;;;13.90;47.67
57048;BME280;42934;54.294;18.598;2023-04-21T08:57:43;101541.81;;;13.97;47.66
57048;BME280;42934;54.294;18.598;2023-04-21T09:00:13;101530.72;;;14.14;48.42
57048;BME280;42934;54.294;18.598;2023-04-21T09:02:56;101525.19;;;14.21;48.20
57048;BME280;42934;54.294;18.598;2023-04-21T09:05:31;101531.13;;;14.28;47.43
57048;BME280;42934;54.294;18.598;2023-04-21T09:08:10;101533.66;;;14.31;47.31
57048;BME280;42934;54.294;18.598;2023-04-21T09:10:44;101516.22;;;14.25;47.05
57048;BME280;42934;54.294;18.598;2023-04-21T09:13:14;101528.06;;;14.40;47.10
57048;BME280;42934;54.294;18.598;2023-04-21T09:15:46;101525.63;;;14.34;46.01
57048;BME280;42934;54.294;18.598;2023-04-21T09:18:17;101531.50;;;14.42;47.06
57048;BME280;42934;54.294;18.598;2023-04-21T09:20:49;101529.19;;;14.60;47.64
57048;BME280;42934;54.294;18.598;2023-04-21T09:23:20;101528.00;;;14.68;47.27
57048;BME280;42934;54.294;18.598;2023-04-21T09:25:51;101525.97;;;14.75;46.66
57048;BME280;42934;54.294;18.598;2023-04-21T09:28:21;101524.81;;;14.82;45.93
57048;BME280;42934;54.294;18.598;2023-04-21T09:30:55;101532.25;;;14.96;46.91
57048;BME280;42934;54.294;18.598;2023-04-21T09:33:24;101527.69;;;15.01;45.59
57048;BME280;42934;54.294;18.598;2023-04-21T09:36:05;101527.16;;;14.91;44.56
57048;BME280;42934;54.294;18.598;2023-04-21T09:38:34;101524.22;;;14.99;44.30
57048;BME280;42934;54.294;18.598;2023-04-21T09:41:05;101524.22;;;14.99;44.50
57048;BME280;42934;54.294;18.598;2023-04-21T09:43:34;101522.44;;;14.99;43.19
57048;BME280;42934;54.294;18.598;2023-04-21T09:46:04;101513.28;;;15.08;43.55
57048;BME280;42934;54.294;18.598;2023-04-21T09:48:33;101516.72;;;15.12;44.25
57048;BME280;42934;54.294;18.598;2023-04-21T09:51:04;101516.25;;;15.24;44.09
57048;BME280;42934;54.294;18.598;2023-04-21T09:53:39;101520.31;;;15.33;42.55
57048;BME280;42934;54.294;18.598;2023-04-21T09:56:11;101512.72;;;15.47;44.05
57048;BME280;42934;54.294;18.598;2023-04-21T09:58:53;101520.16;;;15.59;43.45
57048;BME280;42934;54.294;18.598;2023-04-21T10:01:25;101506.84;;;15.61;42.27
57048;BME280;42934;54.294;18.598;2023-04-21T10:03:56;101512.78;;;15.67;42.75
57048;BME280;42934;54.294;18.598;2023-04-21T10:06:26;101504.25;;;15.83;41.79
57048;BME280;42934;54.294;18.598;2023-04-21T10:08:57;101502.44;;;15.83;41.57
57048;BME280;42934;54.294;18.598;2023-04-21T10:11:28;101502.09;;;15.91;41.76
57048;BME280;42934;54.294;18.598;2023-04-21T10:13:59;101482.72;;;15.90;42.20
57048;BME280;42934;54.294;18.598;2023-04-21T10:16:28;101506.00;;;16.04;41.41
57048;BME280;42934;54.294;18.598;2023-04-21T10:18:58;101502.94;;;16.13;41.31
57048;BME280;42934;54.294;18.598;2023-04-21T10:21:27;101500.16;;;16.17;40.36
57048;BME280;42934;54.294;18.598;2023-04-21T10:23:57;101505.94;;;16.26;40.87
57048;BME280;42934;54.294;18.598;2023-04-21T10:26:34;101498.66;;;16.31;40.56
57048;BME280;42934;54.294;18.598;2023-04-21T10:29:04;101501.75;;;16.41;41.02
57048;BME280;42934;54.294;18.598;2023-04-21T10:31:35;101492.63;;;16.48;41.92
57048;BME280;42934;54.294;18.598;2023-04-21T10:34:16;101500.34;;;16.53;39.75
57048;BME280;42934;54.294;18.598;2023-04-21T10:37:15;101495.84;;;16.55;40.58
57048;BME280;42934;54.294;18.598;2023-04-21T10:39:52;101487.56;;;16.63;38.19
57048;BME280;42934;54.294;18.598;2023-04-21T10:42:28;101489.88;;;16.70;39.36
57048;BME280;42934;54.294;18.598;2023-04-21T10:45:11;101490.66;;;16.72;39.31
57048;BME280;42934;54.294;18.598;2023-04-21T10:47:45;101487.97;;;16.74;38.74
57048;BME280;42934;54.294;18.598;2023-04-21T10:50:19;101486.13;;;16.76;38.54
57048;BME280;42934;54.294;18.598;2023-04-21T10:52:54;101481.00;;;16.92;39.23
57048;BME280;42934;54.294;18.598;2023-04-21T10:55:26;101463.03;;;16.97;36.63
57048;BME280;42934;54.294;18.598;2023-04-21T10:58:01;101468.00;;;16.86;38.67
57048;BME280;42934;54.294;18.598;2023-04-21T11:00:31;101471.59;;;17.03;38.93
57048;BME280;42934;54.294;18.598;2023-04-21T11:03:02;101474.31;;;17.02;38.48
57048;BME280;42934;54.294;18.598;2023-04-21T11:05:35;101468.22;;;17.19;38.43
57048;BME280;42934;54.294;18.598;2023-04-21T11:08:10;101469.78;;;17.23;38.11
57048;BME280;42934;54.294;18.598;2023-04-21T11:10:43;101472.28;;;17.26;38.38
57048;BME280;42934;54.294;18.598;2023-04-21T11:13:14;101457.56;;;17.38;36.47
57048;BME280;42934;54.294;18.598;2023-04-21T11:15:55;101460.53;;;17.51;37.04
57048;BME280;42934;54.294;18.598;2023-04-21T11:18:39;101455.28;;;17.49;35.74
57048;BME280;42934;54.294;18.598;2023-04-21T11:21:11;101447.94;;;17.54;35.99
57048;BME280;42934;54.294;18.598;2023-04-21T11:23:48;101453.03;;;17.76;37.17
57048;BME280;42934;54.294;18.598;2023-04-21T11:26:28;101443.03;;;17.83;37.13
57048;BME280;42934;54.294;18.598;2023-04-21T11:29:04;101447.94;;;17.90;36.82
57048;BME280;42934;54.294;18.598;2023-04-21T11:31:34;101457.72;;;18.07;38.19
57048;BME280;42934;54.294;18.598;2023-04-21T11:34:05;101444.41;;;18.25;37.04
57048;BME280;42934;54.294;18.598;2023-04-21T11:36:35;101425.88;;;18.23;37.02
57048;BME280;42934;54.294;18.598;2023-04-21T11:39:05;101439.38;;;18.53;36.63
57048;BME280;42934;54.294;18.598;2023-04-21T11:41:39;101430.09;;;18.60;35.80
57048;BME280;42934;54.294;18.598;2023-04-21T11:44:11;101432.25;;;18.70;35.10
57048;BME280;42934;54.294;18.598;2023-04-21T11:46:45;101428.28;;;18.61;34.97
57048;BME280;42934;54.294;18.598;2023-04-21T11:49:15;101427.78;;;18.70;35.53
57048;BME280;42934;54.294;18.598;2023-04-21T11:51:45;101426.16;;;18.68;35.28
57048;BME280;42934;54.294;18.598;2023-04-21T11:54:16;101425.91;;;18.56;34.37
57048;BME280;42934;54.294;18.598;2023-04-21T11:56:47;101427.44;;;18.60;35.55
57048;BME280;42934;54.294;18.598;2023-04-21T11:59:21;101435.19;;;18.65;35.81
57048;BME280;42934;54.294;18.598;2023-04-21T12:01:54;101426.13;;;18.52;34.60
57048;BME280;42934;54.294;18.598;2023-04-21T12:04:24;101430.75;;;18.48;34.75
57048;BME280;42934;54.294;18.598;2023-04-21T12:06:59;101418.00;;;18.55;35.02
57048;BME280;42934;54.294;18.598;2023-04-21T12:09:29;101425.50;;;18.47;35.64
57048;BME280;42934;54.294;18.598;2023-04-21T12:11:58;101415.38;;;18.37;36.99
57048;BME280;42934;54.294;18.598;2023-04-21T12:14:33;101414.66;;;18.67;35.54
57048;BME280;42934;54.294;18.598;2023-04-21T12:17:02;101412.50;;;18.58;35.43
57048;BME280;42934;54.294;18.598;2023-04-21T12:19:36;101413.47;;;18.73;36.95
57048;BME280;42934;54.294;18.598;2023-04-21T12:22:10;101397.75;;;18.86;35.95
57048;BME280;42934;54.294;18.598;2023-04-21T12:24:40;101405.97;;;18.81;36.00
57048;BME280;42934;54.294;18.598;2023-04-21T12:27:09;101398.88;;;18.97;36.31
57048;BME280;42934;54.294;18.598;2023-04-21T12:29:41;101396.97;;;18.83;35.58
57048;BME280;42934;54.294;18.598;2023-04-21T12:32:10;101395.41;;;18.95;36.18
57048;BME280;42934;54.294;18.598;2023-04-21T12:34:39;101395.94;;;18.86;35.11
57048;BME280;42934;54.294;18.598;2023-04-21T12:37:09;101393.09;;;18.89;35.98
57048;BME280;42934;54.294;18.598;2023-04-21T12:39:39;101386.81;;;18.90;36.48
57048;BME280;42934;54.294;18.598;2023-04-21T12:42:08;101386.94;;;18.89;35.78
57048;BME280;42934;54.294;18.598;2023-04-21T12:44:37;101389.22;;;18.79;35.78
57048;BME280;42934;54.294;18.598;2023-04-21T12:47:08;101379.78;;;18.73;35.17
57048;BME280;42934;54.294;18.598;2023-04-21T12:49:37;101376.91;;;18.60;35.24
57048;BME280;42934;54.294;18.598;2023-04-21T12:52:06;101378.03;;;18.72;35.97
57048;BME280;42934;54.294;18.598;2023-04-21T12:54:36;101383.41;;;18.55;36.29
57048;BME280;42934;54.294;18.598;2023-04-21T12:57:05;101384.88;;;18.45;36.06
57048;BME280;42934;54.294;18.598;2023-04-21T12:59:34;101386.00;;;18.56;37.26
57048;BME280;42934;54.294;18.598;2023-04-21T13:02:03;101371.66;;;18.43;35.22